Westerville, OH (43086)

10:11 PM EDT on July 29, 2016 (GMT -0400)
Boyer Nature Preserve | | Change Station

Elev 889 ft 40.12 °N, 82.92 °W | Updated 9 minutes ago

Mostly Cloudy
Mostly Cloudy
73.9 °F
Feels Like 73 °F
N
0.0
Wind Variable Wind from SSW

Today
High -- | Low -- °F
--% Chance of Precip.
Yesterday
High -- | Low -- °F
Precip. -- in
Pressure 29.91 in
Visibility 10.0 miles
Clouds Few 5000 ft
Scattered Clouds 8000 ft
Mostly Cloudy 12000 ft
Mostly Cloudy 20000 ft
Heat Index 73 °F
Dew Point 69 °F
Humidity 84%
Rainfall 0.00 in
Snow Depth Not available.
6:27 AM 8:48 PM
Waning Crescent, 17% visible
METAR KCMH 300151Z 08003KT 10SM FEW050 SCT080 BKN120 BKN200 25/20 A2993 RMK AO2 SLP129 T02500200
Pressure 29.91 in
Visibility 10.0 miles
Clouds Few 5000 ft
Scattered Clouds 8000 ft
Mostly Cloudy 12000 ft
Mostly Cloudy 20000 ft
Heat Index 73 °F
Dew Point 69 °F
Humidity 84%
Rainfall 0.00 in
Snow Depth Not available.
6:27 AM 8:48 PM
Waning Crescent, 17% visible
METAR KCMH 300151Z 08003KT 10SM FEW050 SCT080 BKN120 BKN200 25/20 A2993 RMK AO2 SLP129 T02500200

10-Day Weather Forecast

Almanac

Astronomy

Jul. 29, 2016 Rise Set
Actual Time
Civil Twilight
Nautical Twilight
Astronomical Twilight
Moon
Length of Visible Light
Length of Day
Tomorrow will be .
, % of the Moon is Illuminated

Today's Extremes

State Highs State Lows

Community

WunderPhotos

Upload Photos

1,928,481 photos uploaded!

WunderBlog® & News

Nearby

Air Quality

  Air Quality AQ Index Pollutant
Not available.

Snow Depth

Station Depth Elevation

Earthquake Activity

City Distance Mag. Time & Date
Minimum magnitude displayed is 2.5.

Coastal Water Temperatures

Place Temperature

Stations

Nearby Weather Stations

Station Location Temp. Windchill Dew Point Humidity Wind Precip. Elev Updated Type
                   

Watches & Warnings

There are currently no watches in effect.